createdAt,value
2022-10-14T00:03:20.809Z,10.5
2022-10-14T00:08:18.890Z,10.6
2022-10-14T00:13:17.064Z,10.5
2022-10-14T00:18:14.932Z,10.5
2022-10-14T00:23:13.327Z,10.5
2022-10-14T00:28:11.594Z,10.5
2022-10-14T00:33:09.892Z,10.5
2022-10-14T00:38:08.054Z,10.5
2022-10-14T00:43:06.218Z,10.4
2022-10-14T00:48:04.367Z,10.4
2022-10-14T00:53:02.589Z,10.4
2022-10-14T00:58:00.711Z,10.5
2022-10-14T01:02:58.727Z,10.4
2022-10-14T01:07:56.897Z,10.3
2022-10-14T01:12:54.864Z,10.2
2022-10-14T01:17:52.819Z,10.2
2022-10-14T01:22:50.870Z,10.1
2022-10-14T01:27:48.900Z,10.1
2022-10-14T01:32:47.053Z,10.1
2022-10-14T01:37:45.130Z,9.9
2022-10-14T01:42:43.417Z,9.9
2022-10-14T01:47:41.598Z,9.9
2022-10-14T01:52:39.816Z,9.9
2022-10-14T01:57:38.204Z,9.8
2022-10-14T02:02:36.231Z,9.8
2022-10-14T02:07:34.376Z,9.7
2022-10-14T02:12:32.667Z,9.7
2022-10-14T02:17:30.772Z,9.7
2022-10-14T02:22:29.091Z,9.7
2022-10-14T02:27:27.146Z,9.6
2022-10-14T02:32:25.293Z,9.6
2022-10-14T02:37:23.361Z,9.6
2022-10-14T02:42:21.935Z,9.5
2022-10-14T02:47:19.849Z,9.5
2022-10-14T02:52:18.222Z,9.5
2022-10-14T02:57:16.117Z,9.4
2022-10-14T03:02:14.255Z,9.4
2022-10-14T03:07:12.458Z,9.4
2022-10-14T03:12:10.539Z,9.3
2022-10-14T03:17:08.747Z,9.2
2022-10-14T03:22:07.030Z,9.2
2022-10-14T03:27:05.398Z,9.2
2022-10-14T03:32:03.655Z,9.3
2022-10-14T03:37:01.857Z,9.4
2022-10-14T03:42:00.092Z,9.4
2022-10-14T03:46:58.402Z,9.3
2022-10-14T03:51:56.636Z,9.6
2022-10-14T03:56:54.934Z,9.7
2022-10-14T04:01:53.357Z,9.7
2022-10-14T04:06:51.366Z,9.8
2022-10-14T04:11:49.707Z,9.8
2022-10-14T04:16:49.915Z,9.8
2022-10-14T04:21:46.276Z,9.9
2022-10-14T04:26:44.627Z,9.9
2022-10-14T04:31:42.779Z,9.9
2022-10-14T04:36:41.149Z,9.9
2022-10-14T04:41:39.300Z,9.9
2022-10-14T04:46:37.432Z,10
2022-10-14T04:51:35.769Z,10
2022-10-14T04:56:34.251Z,10.1
2022-10-14T05:01:33.984Z,10.2
2022-10-14T05:06:30.781Z,10
2022-10-14T05:11:29.040Z,10
2022-10-14T05:16:27.272Z,10.1
2022-10-14T05:21:25.568Z,10.2
2022-10-14T05:26:24.041Z,10.5
2022-10-14T05:31:22.265Z,10.7
2022-10-14T05:36:20.554Z,10.8
2022-10-14T05:41:19.005Z,10.9
2022-10-14T05:46:17.453Z,11.2
2022-10-14T05:51:15.879Z,11.5
2022-10-14T05:56:14.524Z,11.8
2022-10-14T06:01:13.237Z,12.1
2022-10-14T06:06:11.673Z,12.4
2022-10-14T06:11:10.219Z,12.7
2022-10-14T06:16:08.965Z,13.3
2022-10-14T06:21:07.468Z,13.4
2022-10-14T06:26:05.565Z,13.6
2022-10-14T06:31:04.103Z,13.9
2022-10-14T06:36:02.370Z,14.1
2022-10-14T06:41:00.799Z,14.3
2022-10-14T06:45:58.715Z,14.6
2022-10-14T06:50:56.993Z,14.7
2022-10-14T06:55:55.104Z,14.7
2022-10-14T07:00:53.615Z,14.9
2022-10-14T07:05:52.112Z,15.5
2022-10-14T07:10:50.895Z,16.4
2022-10-14T07:15:50.070Z,17.2
2022-10-14T07:20:48.862Z,17.5
2022-10-14T07:25:47.466Z,18
2022-10-14T07:30:46.263Z,18.6
2022-10-14T07:35:44.461Z,18.6
2022-10-14T07:40:42.965Z,19
2022-10-14T07:45:41.270Z,19.1
2022-10-14T07:50:39.734Z,19.5
2022-10-14T07:55:38.227Z,19.8
2022-10-14T08:00:36.671Z,20
2022-10-14T08:05:38.937Z,20.2
2022-10-14T08:10:33.248Z,20.4
2022-10-14T08:15:31.898Z,20.8
2022-10-14T08:20:30.477Z,21.1
2022-10-14T08:25:29.264Z,22.2
2022-10-14T08:30:28.107Z,23
2022-10-14T08:35:27.020Z,23.4
2022-10-14T08:40:25.116Z,24
2022-10-14T08:45:23.632Z,24.4
2022-10-14T08:50:22.146Z,24.6
2022-10-14T08:55:20.521Z,25
2022-10-14T09:00:18.953Z,24.8
2022-10-14T09:05:17.567Z,25.7
2022-10-14T09:10:16.041Z,25.8
2022-10-14T09:15:14.110Z,26
2022-10-14T09:20:12.123Z,25.9
2022-10-14T09:25:10.431Z,26.1
2022-10-14T09:30:09.005Z,26.6
2022-10-14T09:35:07.240Z,26.7
2022-10-14T09:40:06.272Z,27.9
2022-10-14T09:45:05.251Z,28.4
2022-10-14T09:50:03.973Z,29.1
2022-10-14T09:55:02.118Z,28.5
2022-10-14T09:59:59.854Z,27.9
2022-10-14T10:04:57.385Z,27.6
2022-10-14T10:09:55.016Z,27
2022-10-14T10:14:52.161Z,25.5
2022-10-14T10:19:49.587Z,24.7
2022-10-14T10:24:47.712Z,25
2022-10-14T10:29:46.602Z,26.1
2022-10-14T10:34:45.342Z,26.6
2022-10-14T10:39:43.658Z,26.2
2022-10-14T10:44:41.521Z,26.2
2022-10-14T10:49:40.485Z,27.8
2022-10-14T10:54:39.682Z,28.6
2022-10-14T10:59:37.769Z,27.8
2022-10-14T11:04:35.770Z,27.9
2022-10-14T11:09:33.937Z,28.4
2022-10-14T11:14:32.866Z,29.6
2022-10-14T11:19:32.065Z,30.5
2022-10-14T11:24:30.410Z,30.6
2022-10-14T11:29:27.622Z,29.4
2022-10-14T11:34:24.617Z,28
2022-10-14T11:39:21.397Z,26.3
2022-10-14T11:44:19.278Z,26.5
2022-10-14T11:49:17.539Z,26.4
2022-10-14T11:54:16.258Z,27
2022-10-14T11:59:15.383Z,28.1
2022-10-14T12:04:12.862Z,27.3
2022-10-14T12:09:10.248Z,26.3
2022-10-14T12:14:08.393Z,26.4
2022-10-14T12:19:06.068Z,25.6
2022-10-14T12:24:03.740Z,25.5
2022-10-14T12:29:02.913Z,25
2022-10-14T12:33:58.961Z,24.2
2022-10-14T12:38:56.829Z,23.9
2022-10-14T12:43:54.351Z,22.9
2022-10-14T12:48:52.285Z,23
2022-10-14T12:53:50.010Z,22.3
2022-10-14T12:58:47.553Z,21.8
2022-10-14T13:03:45.222Z,21
2022-10-14T13:08:43.275Z,21.5
2022-10-14T13:13:41.704Z,21.6
2022-10-14T13:18:40.046Z,21.6
2022-10-14T13:23:38.273Z,21.6
2022-10-14T13:28:36.261Z,21.3
2022-10-14T13:33:33.858Z,21.1
2022-10-14T13:38:31.946Z,21
2022-10-14T13:43:29.762Z,20.5
2022-10-14T13:48:27.664Z,19.8
2022-10-14T13:53:26.124Z,19.5
2022-10-14T13:58:24.176Z,19.1
2022-10-14T14:03:22.136Z,18.8
2022-10-14T14:08:37.145Z,18.4
2022-10-14T14:13:17.824Z,18.1
2022-10-14T14:18:15.856Z,18
2022-10-14T14:23:13.719Z,17.5
2022-10-14T14:28:11.712Z,17.1
2022-10-14T14:33:09.686Z,16.9
2022-10-14T14:38:08.078Z,16.6
2022-10-14T14:43:06.089Z,16.3
2022-10-14T14:48:03.834Z,15.7
2022-10-14T14:53:01.704Z,15.4
2022-10-14T14:57:59.773Z,15.2
2022-10-14T15:02:57.734Z,15
2022-10-14T15:07:55.625Z,14.6
2022-10-14T15:12:53.821Z,14.5
2022-10-14T15:17:51.839Z,14
2022-10-14T15:22:49.742Z,14
2022-10-14T15:27:47.641Z,13.6
2022-10-14T15:32:45.435Z,13.4
2022-10-14T15:37:43.560Z,13.1
2022-10-14T15:42:41.334Z,12.8
2022-10-14T15:47:38.954Z,12.4
2022-10-14T15:52:36.686Z,12
2022-10-14T15:57:34.630Z,11.8
2022-10-14T16:02:32.519Z,11.6
2022-10-14T16:07:30.632Z,11.3
2022-10-14T16:12:28.551Z,11.2
2022-10-14T16:17:26.505Z,11
2022-10-14T16:22:24.503Z,11
2022-10-14T16:27:22.843Z,10.9
2022-10-14T16:32:20.844Z,10.6
2022-10-14T16:37:19.110Z,10.4
2022-10-14T16:47:14.882Z,9.8
2022-10-14T16:52:12.960Z,9.7
2022-10-14T16:57:11.233Z,9.7
2022-10-14T17:02:09.282Z,9.7
2022-10-14T17:07:07.491Z,9.6
2022-10-14T17:12:06.845Z,9.4
2022-10-14T17:17:03.843Z,9.5
2022-10-14T17:22:02.031Z,9.4
2022-10-14T17:27:00.211Z,9.5
2022-10-14T17:31:58.447Z,9.5
2022-10-14T17:36:56.704Z,9.5
2022-10-14T17:41:54.828Z,9.5
2022-10-14T17:46:52.716Z,9.1
2022-10-14T17:51:50.652Z,8.8
2022-10-14T17:56:48.586Z,8.4
2022-10-14T18:02:03.301Z,8.2
2022-10-14T18:06:44.894Z,8
2022-10-14T18:12:09.988Z,7.7
2022-10-14T18:16:41.435Z,7.6
2022-10-14T18:21:39.430Z,7.6
2022-10-14T18:26:37.516Z,7.5
2022-10-14T18:31:35.749Z,7.4
2022-10-14T18:36:33.800Z,7.3
2022-10-14T18:41:31.943Z,7.2
2022-10-14T18:46:29.992Z,7.2
2022-10-14T18:51:28.026Z,7.2
2022-10-14T18:56:26.336Z,7.2
2022-10-14T19:01:25.536Z,7.1
2022-10-14T19:06:23.365Z,7.1
2022-10-14T19:11:21.470Z,7
2022-10-14T19:16:20.405Z,6.9
2022-10-14T19:21:19.756Z,7
2022-10-14T19:31:16.209Z,7.3
2022-10-14T19:36:16.600Z,7.2
2022-10-14T19:41:14.196Z,7.5
2022-10-14T19:46:12.691Z,7.7
2022-10-14T19:51:11.146Z,7.9
2022-10-14T19:56:09.429Z,7.9
2022-10-14T20:01:07.706Z,7.9
2022-10-14T20:06:06.009Z,8.1
2022-10-14T20:11:04.305Z,8.3
2022-10-14T20:16:02.551Z,8.5
2022-10-14T20:21:00.673Z,8.5
2022-10-14T20:25:59.050Z,8.4
2022-10-14T20:30:57.161Z,8.4
2022-10-14T20:35:55.315Z,8.4
2022-10-14T20:40:53.136Z,8.4
2022-10-14T20:45:51.398Z,8.6
2022-10-14T20:50:49.696Z,8.6
2022-10-14T20:55:48.065Z,8.7
2022-10-14T21:00:46.222Z,8.4
2022-10-14T21:05:44.149Z,8.5
2022-10-14T21:10:42.536Z,8.6
2022-10-14T21:15:40.778Z,8.6
2022-10-14T21:20:39.014Z,8.8
2022-10-14T21:25:37.288Z,8.9
2022-10-14T21:30:35.703Z,9
2022-10-14T21:35:33.926Z,8.9
2022-10-14T21:40:32.142Z,8.9
2022-10-14T21:45:30.325Z,8.9
2022-10-14T21:50:28.871Z,8.8
2022-10-14T21:55:27.301Z,8.9
2022-10-14T22:00:25.477Z,8.7
2022-10-14T22:05:23.634Z,8.9
2022-10-14T22:10:22.020Z,8.8
2022-10-14T22:15:20.103Z,8.8
2022-10-14T22:20:18.165Z,8.9
2022-10-14T22:25:16.296Z,8.8
2022-10-14T22:30:14.581Z,8.8
2022-10-14T22:35:12.837Z,8.9
2022-10-14T22:40:11.319Z,8.9
2022-10-14T22:45:09.583Z,9
2022-10-14T22:50:07.663Z,9.1
2022-10-14T22:55:06.189Z,9.2
2022-10-14T23:00:04.050Z,9.2
2022-10-14T23:05:02.292Z,9.2
2022-10-14T23:10:00.502Z,9.2
2022-10-14T23:14:58.882Z,9.1
2022-10-14T23:19:57.094Z,9.2
2022-10-14T23:24:54.965Z,9
2022-10-14T23:29:53.042Z,8.9
2022-10-14T23:34:51.199Z,8.9
2022-10-14T23:39:49.236Z,8.9
2022-10-14T23:44:47.456Z,8.8
2022-10-14T23:49:45.428Z,8.7
2022-10-14T23:54:43.515Z,8.4
2022-10-14T23:59:41.445Z,8.4
